Time;durP1;ratioP1;P1;durP2;ratioP2;P2;SDS_P1;SDS_P2;PMS_P1;PMS_P2;Temp;Humidity;BMP_temperature;BMP_pressure;BME280_temperature;BME280_humidity;BME280_pressure;Samples;Min_cycle;Max_cycle;Signal;HPM_P1;HPM_P2
2022/09/22 00:00:34;;;;;;;;;11.75;11.00;;;;;11.23;69.50;102535.63;5011572;28;10242;-66
2022/09/22 00:03:00;;;;;;;;;13.00;11.75;;;;;11.21;69.83;102534.94;5028953;28;10042;-66
2022/09/22 00:05:27;;;;;;;;;14.50;11.50;;;;;11.20;69.91;102535.09;5018762;28;10154;-66
2022/09/22 00:07:53;;;;;;;;;11.25;11.25;;;;;11.16;70.00;102534.56;5014554;28;10151;-66
2022/09/22 00:10:21;;;;;;;;;12.00;10.25;;;;;11.16;69.64;102528.31;5032295;28;10145;-66
2022/09/22 00:12:48;;;;;;;;;12.25;9.25;;;;;11.15;70.02;102532.88;5016283;28;10242;-65
2022/09/22 00:15:16;;;;;;;;;9.50;9.50;;;;;11.13;69.75;102524.09;5014483;28;10345;-65
2022/09/22 00:17:43;;;;;;;;;9.50;7.00;;;;;11.13;69.34;102524.09;5012113;28;10303;-66
2022/09/22 00:20:13;;;;;;;;;8.50;8.50;;;;;11.11;69.54;102524.25;5012597;28;10207;-66
2022/09/22 00:22:40;;;;;;;;;8.00;8.00;;;;;11.10;70.00;102519.88;5013194;28;10113;-67
2022/09/22 00:25:07;;;;;;;;;9.00;8.50;;;;;11.09;70.00;102514.63;5013630;28;10095;-66
2022/09/22 00:27:34;;;;;;;;;2.25;2.25;;;;;11.09;69.73;102517.31;5012670;28;9994;-67
2022/09/22 00:30:00;;;;;;;;;6.50;6.00;;;;;11.08;70.13;102513.78;5016403;28;10014;-67
2022/09/22 00:32:27;;;;;;;;;7.25;7.00;;;;;11.08;70.20;102513.78;5032740;28;10719;-65
2022/09/22 00:34:53;;;;;;;;;2.50;2.50;;;;;11.08;69.94;102502.16;5029545;28;10035;-66
2022/09/22 00:37:20;;;;;;;;;4.00;4.00;;;;;11.08;69.70;102502.16;5012410;28;10021;-65
2022/09/22 00:39:46;;;;;;;;;5.75;5.00;;;;;11.07;69.93;102501.31;5013904;28;9855;-66
2022/09/22 00:42:12;;;;;;;;;4.25;4.25;;;;;11.05;70.05;102497.06;5013759;28;10032;-66
2022/09/22 00:44:43;;;;;;;;;6.50;6.00;;;;;11.03;69.92;102507.19;5017407;28;9868;-66
2022/09/22 00:47:28;;;;;;;;;8.00;6.25;;;;;11.01;69.72;102499.22;5032061;28;10133;-66
2022/09/22 00:49:57;;;;;;;;;7.50;5.00;;;;;11.01;70.03;102493.00;5025870;28;10034;-67
2022/09/22 00:52:45;;;;;;;;;10.00;7.75;;;;;11.00;69.92;102483.22;5010372;28;9856;-66
2022/09/22 00:55:19;;;;;;;;;3.00;3.00;;;;;10.98;69.75;102490.59;5010229;28;10023;-66
2022/09/22 00:57:47;;;;;;;;;10.00;5.50;;;;;10.94;69.94;102492.78;5017509;28;9840;-67
2022/09/22 01:00:16;;;;;;;;;5.50;5.50;;;;;10.92;70.26;102492.09;5023008;28;10245;-66
2022/09/22 01:02:48;;;;;;;;;7.50;5.00;;;;;10.93;69.89;102487.53;5010224;28;10846;-66
2022/09/22 01:05:16;;;;;;;;;6.00;4.75;;;;;10.91;70.19;102484.19;5011554;28;10022;-66
2022/09/22 01:07:43;;;;;;;;;5.75;5.00;;;;;10.91;69.93;102489.56;5010027;28;10105;-66
2022/09/22 01:10:10;;;;;;;;;7.25;6.25;;;;;10.89;70.33;102489.69;5014579;28;10098;-66
2022/09/22 01:12:43;;;;;;;;;6.00;5.00;;;;;10.86;70.02;102482.78;5028930;28;10014;-66
2022/09/22 01:15:34;;;;;;;;;6.00;5.00;;;;;10.82;69.77;102484.09;5024495;28;10020;-66
2022/09/22 01:18:09;;;;;;;;;8.75;5.50;;;;;10.79;70.15;102479.03;5017627;28;10287;-67
2022/09/22 01:21:13;;;;;;;;;6.75;5.75;;;;;10.77;69.80;102481.00;5009884;28;10259;-66
2022/09/22 01:24:11;;;;;;;;;5.00;5.00;;;;;10.75;70.20;102477.66;5009371;28;10171;-64
2022/09/22 01:27:12;;;;;;;;;5.50;5.50;;;;;10.76;69.92;102473.09;5013170;28;11116;-66
2022/09/22 01:30:07;;;;;;;;;7.00;4.00;;;;;10.74;70.02;102469.72;5031964;28;10277;-66
2022/09/22 01:33:08;;;;;;;;;5.50;5.00;;;;;10.72;70.08;102466.34;5029648;28;10074;-67
2022/09/22 01:36:13;;;;;;;;;5.50;5.50;;;;;10.68;69.97;102470.34;5030207;28;10098;-66
2022/09/22 01:39:09;;;;;;;;;5.00;5.00;;;;;10.62;70.27;102467.28;5014053;28;10090;-66
2022/09/22 01:42:03;;;;;;;;;4.75;4.75;;;;;10.60;69.81;102466.56;5012479;28;10944;-67
2022/09/22 01:45:07;;;;;;;;;5.00;5.00;;;;;10.60;69.96;102460.34;5011044;28;10830;-66
2022/09/22 01:47:44;;;;;;;;;5.50;5.50;;;;;10.57;70.11;102456.13;5006260;28;10092;-66
2022/09/22 01:50:18;;;;;;;;;6.25;5.75;;;;;10.57;70.32;102455.25;5033367;28;10181;-66
2022/09/22 01:52:46;;;;;;;;;5.00;5.00;;;;;10.56;70.12;102453.56;5033392;28;10076;-66
2022/09/22 01:55:24;;;;;;;;;6.00;5.00;;;;;10.55;70.00;102450.03;5033355;28;10163;-67
2022/09/22 01:57:56;;;;;;;;;6.00;5.00;;;;;10.53;70.13;102451.19;5022660;28;10102;-66
2022/09/22 02:00:25;;;;;;;;;7.00;7.00;;;;;10.53;70.07;102451.19;5013395;28;10148;-66
2022/09/22 02:03:13;;;;;;;;;5.00;5.00;;;;;10.53;70.49;102452.03;5030529;28;10105;-66
2022/09/22 02:05:58;;;;;;;;;7.25;6.00;;;;;10.53;70.39;102437.72;5033282;28;10164;-66
2022/09/22 02:08:34;;;;;;;;;5.00;5.00;;;;;10.52;70.31;102439.56;5022798;28;10182;-66
2022/09/22 02:11:10;;;;;;;;;5.25;4.50;;;;;10.52;70.27;102438.72;5033128;28;10133;-66
2022/09/22 02:13:37;;;;;;;;;5.75;5.00;;;;;10.50;70.63;102429.97;5033216;28;10203;-66
2022/09/22 02:16:04;;;;;;;;;6.25;4.25;;;;;10.50;70.73;102436.19;5032980;28;10477;-66
2022/09/22 02:18:48;;;;;;;;;5.00;5.00;;;;;10.51;70.44;102424.41;5017190;28;10167;-66
2022/09/22 02:21:16;;;;;;;;;6.25;5.00;;;;;10.49;70.35;102425.56;5026025;28;10293;-66
2022/09/22 02:23:45;;;;;;;;;9.50;6.25;;;;;10.48;70.51;102426.56;5013003;28;10933;-66
2022/09/22 02:26:22;;;;;;;;;4.25;4.25;;;;;10.47;70.48;102422.19;5013106;28;10170;-66
2022/09/22 02:29:02;;;;;;;;;4.25;4.00;;;;;10.46;70.78;102420.50;5031301;28;10143;-65
2022/09/22 02:31:33;;;;;;;;;6.50;4.00;;;;;10.43;70.65;102416.25;5034404;28;10097;-65
2022/09/22 02:34:01;;;;;;;;;5.75;4.75;;;;;10.44;70.40;102419.81;5034081;28;10073;-64
2022/09/22 02:36:47;;;;;;;;;7.25;6.00;;;;;10.40;70.98;102413.88;5022213;28;10155;-64
2022/09/22 02:39:36;;;;;;;;;5.00;5.00;;;;;10.38;70.78;102416.72;5015137;28;10074;-65
2022/09/22 02:42:14;;;;;;;;;4.25;4.25;;;;;10.36;70.57;102418.72;5015268;28;10196;-65
2022/09/22 02:45:12;;;;;;;;;7.00;7.00;;;;;10.35;70.70;102417.03;5015272;28;10107;-65
2022/09/22 02:47:50;;;;;;;;;5.00;5.00;;;;;10.32;70.29;102411.94;5020613;28;10087;-65
2022/09/22 02:50:21;;;;;;;;;3.50;3.50;;;;;10.30;70.97;102408.59;5034993;28;10142;-65
2022/09/22 02:52:51;;;;;;;;;4.75;4.75;;;;;10.29;70.75;102411.41;5021184;28;10084;-65
2022/09/22 02:55:17;;;;;;;;;5.25;5.25;;;;;10.28;70.87;102405.19;5015523;28;10255;-64
2022/09/22 02:57:43;;;;;;;;;6.50;6.00;;;;;10.26;70.80;102400.97;5014304;28;10712;-65
2022/09/22 03:00:11;;;;;;;;;4.00;4.00;;;;;10.24;70.95;102401.06;5014703;28;10240;-65
2022/09/22 03:02:37;;;;;;;;;6.25;4.75;;;;;10.22;70.62;102399.56;5005434;28;10337;-65
2022/09/22 03:05:04;;;;;;;;;4.00;4.00;;;;;10.21;70.39;102403.22;5033143;28;10247;-64
2022/09/22 03:07:30;;;;;;;;;5.50;5.00;;;;;10.22;70.49;102402.25;5034587;28;10242;-65
2022/09/22 03:09:57;;;;;;;;;6.75;2.00;;;;;10.20;70.72;102405.06;5034400;28;10180;-65
2022/09/22 03:12:23;;;;;;;;;7.00;6.00;;;;;10.18;70.62;102399.03;5027351;28;10254;-65
2022/09/22 03:14:49;;;;;;;;;8.00;5.00;;;;;10.18;70.54;102396.31;5012852;28;10303;-64
2022/09/22 03:17:16;;;;;;;;;5.00;5.00;;;;;10.18;70.98;102404.41;5014273;28;10267;-64
2022/09/22 03:19:42;;;;;;;;;6.00;6.00;;;;;10.18;70.31;102392.78;5015585;28;10326;-64
2022/09/22 03:22:08;;;;;;;;;5.75;5.75;;;;;10.16;70.39;102396.47;5018861;28;10298;-64
2022/09/22 03:24:35;;;;;;;;;8.50;7.00;;;;;10.16;70.39;102396.47;5034474;28;10232;-64
2022/09/22 03:27:01;;;;;;;;;8.00;8.00;;;;;10.15;70.35;102399.31;5015587;28;10232;-66
2022/09/22 03:29:28;;;;;;;;;5.00;5.00;;;;;10.14;70.41;102397.63;5014956;28;11082;-64
2022/09/22 03:31:54;;;;;;;;;6.25;6.00;;;;;10.14;70.40;102392.25;5016573;28;10253;-65
2022/09/22 03:34:20;;;;;;;;;8.75;4.00;;;;;10.12;70.74;102389.69;5033953;28;10344;-65
2022/09/22 03:36:47;;;;;;;;;5.00;4.00;;;;;10.12;70.43;102391.53;5033947;28;10177;-65
2022/09/22 03:39:13;;;;;;;;;5.00;4.25;;;;;10.09;70.67;102386.50;5027311;28;10040;-65
2022/09/22 03:41:39;;;;;;;;;4.00;4.00;;;;;10.08;70.48;102380.25;5015195;28;10266;-65
2022/09/22 03:44:06;;;;;;;;;4.00;4.00;;;;;10.09;70.32;102378.41;5033134;28;10277;-65
2022/09/22 03:46:33;;;;;;;;;6.50;5.25;;;;;10.08;70.42;102384.78;5034022;28;10386;-65
2022/09/22 03:48:59;;;;;;;;;7.50;7.50;;;;;10.05;70.61;102385.09;5034452;28;10267;-65
2022/09/22 03:51:26;;;;;;;;;5.00;5.00;;;;;10.02;70.57;102388.94;5035127;28;10291;-66
2022/09/22 03:53:53;;;;;;;;;4.00;4.00;;;;;10.00;70.39;102388.22;5014840;28;10242;-65
2022/09/22 03:56:19;;;;;;;;;5.50;5.50;;;;;9.97;70.61;102380.50;5013712;28;10223;-65
2022/09/22 03:58:46;;;;;;;;;7.50;6.25;;;;;9.99;70.57;102389.22;5014626;28;10242;-65
2022/09/22 04:01:13;;;;;;;;;6.75;5.00;;;;;9.98;70.39;102382.16;5014062;28;10434;-64
2022/09/22 04:03:39;;;;;;;;;5.75;5.75;;;;;9.97;70.94;102385.03;5030974;28;10295;-65
2022/09/22 04:06:06;;;;;;;;;4.50;4.00;;;;;9.96;71.29;102381.47;5033386;28;10158;-64
2022/09/22 04:08:33;;;;;;;;;9.00;8.00;;;;;9.95;70.85;102379.78;5032068;28;10421;-67
2022/09/22 04:11:00;;;;;;;;;5.00;5.00;;;;;9.95;70.54;102379.78;5032406;28;10306;-65
2022/09/22 04:13:27;;;;;;;;;9.00;5.00;;;;;9.95;70.89;102376.25;5017308;28;10258;-65
2022/09/22 04:15:53;;;;;;;;;6.75;5.75;;;;;9.94;70.59;102377.25;5013591;28;10356;-65
2022/09/22 04:18:21;;;;;;;;;9.00;6.50;;;;;9.91;70.45;102373.84;5013305;28;10232;-65
2022/09/22 04:20:47;;;;;;;;;8.75;6.00;;;;;9.89;70.59;102367.78;5013448;28;10449;-65
2022/09/22 04:23:15;;;;;;;;;5.50;5.25;;;;;9.87;70.54;102379.69;5016774;28;10354;-66
2022/09/22 04:25:41;;;;;;;;;7.50;5.50;;;;;9.84;70.89;102375.47;5011042;28;10306;-66
2022/09/22 04:28:08;;;;;;;;;6.00;6.00;;;;;9.83;71.16;102367.53;5020687;28;10280;-65
2022/09/22 04:30:35;;;;;;;;;7.25;6.75;;;;;9.81;70.78;102372.25;5031303;28;10291;-66
2022/09/22 04:33:02;;;;;;;;;6.00;6.00;;;;;9.79;71.17;102369.69;5018844;28;10348;-66
2022/09/22 04:35:28;;;;;;;;;7.00;6.75;;;;;9.79;70.58;102360.78;5011266;28;10306;-66
2022/09/22 04:37:56;;;;;;;;;6.00;6.00;;;;;9.77;70.77;102369.00;5011015;28;10420;-66
2022/09/22 04:40:24;;;;;;;;;7.00;7.00;;;;;9.76;70.90;102369.97;5010806;28;10316;-66
2022/09/22 04:42:50;;;;;;;;;7.50;6.00;;;;;9.74;71.25;102366.63;5019097;28;10294;-66
2022/09/22 04:45:17;;;;;;;;;8.75;6.50;;;;;9.74;71.16;102371.16;5010920;28;10302;-66
2022/09/22 04:47:48;;;;;;;;;8.00;7.50;;;;;9.73;71.17;102367.63;5010615;28;10383;-65
2022/09/22 04:50:16;;;;;;;;;8.25;7.25;;;;;9.72;70.88;102370.44;5010668;28;10290;-65
2022/09/22 04:52:49;;;;;;;;;9.00;6.25;;;;;9.71;70.87;102366.91;5020014;28;10528;-66
2022/09/22 04:55:16;;;;;;;;;6.00;6.00;;;;;9.72;70.91;102368.59;5030588;28;10354;-67
2022/09/22 04:57:47;;;;;;;;;8.00;8.00;;;;;9.72;70.44;102365.91;5014288;28;10418;-65
2022/09/22 05:00:17;;;;;;;;;8.75;7.25;;;;;9.70;70.87;102367.91;5009937;28;10393;-65
2022/09/22 05:02:43;;;;;;;;;8.25;6.50;;;;;9.70;70.54;102367.91;5019796;28;10317;-66
2022/09/22 05:05:10;;;;;;;;;6.25;6.25;;;;;9.68;70.82;102371.75;5030193;28;10410;-64
2022/09/22 05:07:45;;;;;;;;;9.00;9.00;;;;;9.67;70.69;102365.53;5022617;28;10399;-67
2022/09/22 05:10:12;;;;;;;;;8.25;7.50;;;;;9.65;71.24;102365.69;5010854;28;10597;-67
2022/09/22 05:12:40;;;;;;;;;8.50;6.50;;;;;9.65;71.22;102364.84;5011864;28;10440;-65
2022/09/22 05:15:08;;;;;;;;;6.00;6.00;;;;;9.64;71.32;102360.44;5010192;28;10437;-66
2022/09/22 05:17:35;;;;;;;;;14.50;11.00;;;;;9.64;70.64;102366.69;5009939;28;10382;-66
2022/09/22 05:20:05;;;;;;;;;8.25;6.25;;;;;9.63;71.05;102366.81;5011929;28;10514;-66
2022/09/22 05:22:32;;;;;;;;;7.00;5.25;;;;;9.62;71.00;102367.81;5021902;28;10346;-67
2022/09/22 05:25:07;;;;;;;;;7.25;7.25;;;;;9.62;71.06;102365.13;5033895;28;10359;-65
2022/09/22 05:27:33;;;;;;;;;7.00;7.00;;;;;9.60;71.02;102357.22;5024321;28;10543;-65
2022/09/22 05:30:00;;;;;;;;;7.00;6.00;;;;;9.59;71.21;102366.28;5033849;28;10318;-66
2022/09/22 05:32:26;;;;;;;;;7.50;7.50;;;;;9.59;70.89;102368.97;5026252;28;10381;-66
2022/09/22 05:34:52;;;;;;;;;6.00;6.00;;;;;9.58;70.62;102361.91;5013981;28;11186;-66
2022/09/22 05:37:19;;;;;;;;;7.50;5.00;;;;;9.57;71.17;102360.22;5013427;28;10228;-66
2022/09/22 05:39:45;;;;;;;;;8.75;8.75;;;;;9.58;70.97;102359.22;5014191;28;10361;-66
2022/09/22 05:42:11;;;;;;;;;6.00;6.00;;;;;9.61;71.33;102363.44;5016558;28;10652;-66
2022/09/22 05:44:38;;;;;;;;;9.25;7.50;;;;;9.61;71.32;102374.22;5012934;28;10466;-66
2022/09/22 05:47:04;;;;;;;;;12.00;9.00;;;;;9.61;71.22;102368.81;5016919;28;10455;-66
2022/09/22 05:49:31;;;;;;;;;8.25;8.00;;;;;9.63;71.17;102369.50;5033389;28;11175;-66
2022/09/22 05:51:57;;;;;;;;;11.00;9.00;;;;;9.64;71.20;102374.75;5029553;28;10456;-66
2022/09/22 05:54:24;;;;;;;;;12.50;9.00;;;;;9.64;71.35;102366.69;5013493;28;10577;-66
2022/09/22 05:56:50;;;;;;;;;8.50;7.00;;;;;9.66;71.21;102356.63;5012802;28;10566;-65
2022/09/22 05:59:17;;;;;;;;;11.75;9.00;;;;;9.68;71.86;102359.13;5017680;28;10414;-64
2022/09/22 06:01:43;;;;;;;;;10.00;9.25;;;;;9.71;71.46;102369.59;5029809;28;10483;-66
2022/09/22 06:04:10;;;;;;;;;7.25;6.50;;;;;9.74;71.81;102361.25;5013300;28;10447;-66
2022/09/22 06:06:36;;;;;;;;;9.75;9.75;;;;;9.77;71.54;102368.16;5012871;28;10511;-66
2022/09/22 06:09:02;;;;;;;;;10.75;10.75;;;;;9.78;71.71;102362.63;5013123;28;10461;-66
2022/09/22 06:11:29;;;;;;;;;12.00;9.00;;;;;9.82;71.49;102365.88;5013045;28;10493;-66
2022/09/22 06:13:55;;;;;;;;;9.00;9.00;;;;;9.84;71.84;102366.53;5014642;28;10510;-65
2022/09/22 06:16:21;;;;;;;;;9.00;9.00;;;;;9.88;71.78;102368.81;5032462;28;10485;-65
2022/09/22 06:18:48;;;;;;;;;11.50;9.25;;;;;9.93;71.79;102359.44;5032413;28;10419;-65
2022/09/22 06:21:15;;;;;;;;;12.00;11.00;;;;;9.99;71.55;102372.25;5032785;28;10394;-67
2022/09/22 06:23:42;;;;;;;;;15.00;12.00;;;;;10.03;71.94;102365.56;5015003;28;10327;-66
2022/09/22 06:26:09;;;;;;;;;10.25;10.25;;;;;10.08;71.68;102365.94;5012776;28;10401;-66
2022/09/22 06:28:35;;;;;;;;;14.25;12.00;;;;;10.14;71.60;102360.81;5012420;28;11128;-67
2022/09/22 06:31:02;;;;;;;;;9.50;9.50;;;;;10.21;71.48;102362.88;5015704;28;10314;-67
2022/09/22 06:33:29;;;;;;;;;10.25;10.25;;;;;10.28;71.50;102359.44;5030124;28;10493;-67
2022/09/22 06:35:57;;;;;;;;;7.25;7.25;;;;;10.34;71.66;102368.75;5012530;28;10415;-67
2022/09/22 06:38:23;;;;;;;;;11.75;10.00;;;;;10.39;71.32;102363.75;5014335;28;10278;-67
2022/09/22 06:40:50;;;;;;;;;8.00;2.50;;;;;10.46;71.33;102359.44;5032100;28;10153;-67
2022/09/22 06:43:22;;;;;;;;;13.00;12.00;;;;;10.51;71.54;102354.41;5017863;28;10171;-67
2022/09/22 06:45:50;;;;;;;;;11.75;9.00;;;;;10.58;71.64;102366.25;5011267;28;10483;-67
2022/09/22 06:48:17;;;;;;;;;13.75;10.75;;;;;10.63;71.71;102361.22;5024020;28;10154;-67
2022/09/22 06:50:48;;;;;;;;;14.50;13.00;;;;;10.69;71.82;102357.06;5031825;28;10432;-67
2022/09/22 06:53:14;;;;;;;;;16.75;16.00;;;;;10.73;71.19;102363.81;5017909;28;11124;-67
2022/09/22 06:55:42;;;;;;;;;10.75;10.75;;;;;10.77;71.77;102361.66;5012238;28;10281;-67
2022/09/22 06:58:10;;;;;;;;;10.50;8.75;;;;;10.82;71.40;102362.03;5011973;28;10324;-67
2022/09/22 07:00:37;;;;;;;;;11.00;11.00;;;;;10.86;71.58;102358.88;5011953;28;10251;-67
2022/09/22 07:03:19;;;;;;;;;16.50;13.75;;;;;10.95;71.53;102365.16;5012007;28;10236;-67
2022/09/22 07:05:59;;;;;;;;;15.50;13.00;;;;;11.00;71.49;102356.59;5011977;28;10319;-67
2022/09/22 07:08:28;;;;;;;;;16.25;12.50;;;;;11.05;71.37;102348.84;5011991;28;10956;-67
2022/09/22 07:11:08;;;;;;;;;14.25;12.50;;;;;11.09;71.75;102350.22;5011929;28;10926;-67
2022/09/22 07:13:37;;;;;;;;;15.75;13.00;;;;;11.13;71.84;102344.34;5028510;28;10071;-67
2022/09/22 07:16:18;;;;;;;;;11.00;10.25;;;;;11.19;71.59;102344.72;5031487;28;10090;-67
2022/09/22 07:18:50;;;;;;;;;15.50;13.25;;;;;11.23;71.86;102352.34;5029458;28;11002;-67
2022/09/22 07:21:19;;;;;;;;;19.00;14.25;;;;;11.27;71.49;102347.47;5017810;28;10167;-67
2022/09/22 07:23:48;;;;;;;;;16.50;14.75;;;;;11.33;71.61;102352.19;5029550;28;10231;-67
2022/09/22 07:26:20;;;;;;;;;15.00;12.75;;;;;11.37;71.85;102349.00;5030269;28;10896;-67
2022/09/22 07:28:50;;;;;;;;;13.25;12.75;;;;;11.42;71.41;102344.97;5030774;28;11022;-67
2022/09/22 07:31:17;;;;;;;;;12.25;12.25;;;;;11.46;71.83;102346.34;5031333;28;10121;-67
2022/09/22 07:33:45;;;;;;;;;18.00;15.00;;;;;11.50;71.55;102343.16;5014505;28;10159;-67
2022/09/22 07:36:20;;;;;;;;;16.25;11.50;;;;;11.57;71.56;102349.59;5011521;28;10153;-67
2022/09/22 07:38:51;;;;;;;;;12.50;12.50;;;;;11.60;71.17;102343.88;5011357;28;10086;-67
2022/09/22 07:41:20;;;;;;;;;11.50;10.75;;;;;11.63;71.19;102345.41;5025611;28;10101;-66
2022/09/22 07:43:55;;;;;;;;;12.75;10.50;;;;;11.68;70.66;102342.22;5025297;28;10023;-66
2022/09/22 07:46:22;;;;;;;;;17.00;14.75;;;;;11.67;70.47;102344.06;5012377;28;10103;-67
2022/09/22 07:48:48;;;;;;;;;18.75;16.75;;;;;11.68;69.90;102348.44;5011327;28;10178;-67
2022/09/22 07:51:23;;;;;;;;;13.25;12.75;;;;;11.71;69.48;102340.03;5029817;28;10237;-67
2022/09/22 07:54:06;;;;;;;;;16.75;15.00;;;;;11.74;69.43;102345.06;5012614;28;10722;-67
2022/09/22 07:56:40;;;;;;;;;10.00;10.00;;;;;11.79;69.35;102350.00;5012364;28;10154;-67
2022/09/22 07:59:09;;;;;;;;;9.75;9.00;;;;;11.84;68.90;102344.97;5011098;28;9924;-69
2022/09/22 08:01:40;;;;;;;;;12.25;9.25;;;;;11.88;68.48;102349.88;5012342;28;10033;-66
2022/09/22 08:04:14;;;;;;;;;13.00;13.00;;;;;11.93;68.47;102345.81;5029788;28;10012;-67
2022/09/22 08:06:42;;;;;;;;;12.50;12.50;;;;;11.98;68.37;102336.22;5030006;28;10286;-66
2022/09/22 08:09:11;;;;;;;;;13.00;13.00;;;;;12.00;67.97;102336.91;5025111;28;10211;-65
2022/09/22 08:11:38;;;;;;;;;11.25;9.75;;;;;12.07;67.76;102337.06;5015322;28;10164;-67
2022/09/22 08:14:07;;;;;;;;;7.50;7.50;;;;;12.11;67.49;102341.97;5011053;28;10629;-67
2022/09/22 08:16:38;;;;;;;;;11.25;11.25;;;;;12.16;67.15;102327.97;5010569;28;9972;-67
2022/09/22 08:19:13;;;;;;;;;10.50;10.50;;;;;12.22;67.32;102334.53;5013220;28;10104;-67
2022/09/22 08:21:42;;;;;;;;;10.00;9.00;;;;;12.28;66.73;102333.88;5012344;28;9930;-66
2022/09/22 08:24:19;;;;;;;;;12.75;12.75;;;;;12.31;66.40;102328.13;5030499;28;10641;-67
2022/09/22 08:26:46;;;;;;;;;12.50;12.50;;;;;12.37;66.21;102333.69;5013395;28;10797;-66
2022/09/22 08:29:13;;;;;;;;;13.00;13.00;;;;;12.42;65.96;102329.66;5012411;28;9762;-65
2022/09/22 08:31:41;;;;;;;;;12.50;10.75;;;;;12.48;65.57;102331.69;5014424;28;10037;-66
2022/09/22 08:34:08;;;;;;;;;12.75;12.00;;;;;12.54;65.27;102325.59;5031593;28;9995;-66
2022/09/22 08:36:36;;;;;;;;;12.00;11.50;;;;;12.61;65.28;102326.59;5032652;28;9907;-66
2022/09/22 08:39:03;;;;;;;;;9.75;7.75;;;;;12.68;65.24;102332.13;5030187;28;9748;-66
2022/09/22 08:41:30;;;;;;;;;8.25;8.25;;;;;12.72;65.06;102328.94;5028431;28;9725;-67
2022/09/22 08:44:00;;;;;;;;;7.00;6.50;;;;;12.80;65.02;102320.81;5029133;28;9757;-66
2022/09/22 08:46:35;;;;;;;;;8.25;7.50;;;;;12.89;64.43;102329.75;5019210;28;10301;-67
2022/09/22 08:52:06;;;;;;;;;8.75;7.00;;;;;13.06;63.89;102325.97;5015522;28;10448;-66
2022/09/22 08:54:34;;;;;;;;;7.00;7.00;;;;;13.11;64.01;102320.03;5009971;28;9637;-66
2022/09/22 08:57:48;;;;;;;;;8.25;6.00;;;;;13.16;63.54;102323.03;5014066;28;9574;-66
2022/09/22 09:00:17;;;;;;;;;11.50;8.00;;;;;13.19;63.48;102314.59;5031528;28;9474;-67
2022/09/22 09:02:54;;;;;;;;;8.00;8.00;;;;;13.24;63.22;102320.34;5020121;28;9996;-67
2022/09/22 09:05:49;;;;;;;;;8.75;8.75;;;;;13.30;63.44;102314.25;5016744;28;9433;-67
2022/09/22 09:08:32;;;;;;;;;15.50;10.75;;;;;13.32;62.89;102312.19;5018576;28;9532;-67
2022/09/22 09:11:13;;;;;;;;;7.50;7.50;;;;;13.39;63.13;102319.63;5031768;28;9451;-65
2022/09/22 09:13:58;;;;;;;;;8.67;8.00;;;;;13.48;62.83;102313.13;5013687;28;9444;-65
2022/09/22 09:16:53;;;;;;;;;8.25;7.25;;;;;13.54;62.58;102321.41;5010876;28;9649;-66
2022/09/22 09:19:42;;;;;;;;;10.00;8.00;;;;;13.58;62.34;102321.88;5035491;23;9522;-65
2022/09/22 09:22:21;;;;;;;;;7.25;6.50;;;;;13.64;62.19;102323.03;5014803;28;9498;-65
2022/09/22 09:24:55;;;;;;;;;8.00;8.00;;;;;13.70;62.10;102316.91;5030175;28;9614;-65
2022/09/22 09:27:46;;;;;;;;;7.00;6.50;;;;;13.77;61.95;102310.59;5029137;28;10126;-65
2022/09/22 09:30:20;;;;;;;;;6.50;6.50;;;;;13.81;61.83;102314.66;5020823;28;9463;-65
2022/09/22 09:32:59;;;;;;;;;7.25;7.25;;;;;13.84;61.80;102319.66;5009273;28;10170;-66
2022/09/22 09:35:49;;;;;;;;;9.00;6.25;;;;;13.90;61.68;102314.59;5007540;28;9595;-65
2022/09/22 09:38:18;;;;;;;;;7.25;7.00;;;;;13.91;61.60;102319.81;5007860;28;9466;-66
2022/09/22 09:40:48;;;;;;;;;7.67;6.67;;;;;13.92;61.27;102320.66;5008146;28;10222;-65
2022/09/22 09:43:15;;;;;;;;;9.50;9.25;;;;;13.89;61.61;102324.53;5009394;28;9431;-65
2022/09/22 09:46:10;;;;;;;;;10.00;10.00;;;;;13.90;61.05;102317.28;5008166;28;9467;-65
2022/09/22 09:49:01;;;;;;;;;9.00;8.67;;;;;13.95;60.76;102323.00;5008760;28;9604;-65
2022/09/22 09:51:28;;;;;;;;;6.00;6.00;;;;;14.02;60.75;102322.09;5009528;28;9436;-66
2022/09/22 09:53:57;;;;;;;;;10.67;8.67;;;;;14.08;60.82;102317.81;5008978;28;9355;-66
2022/09/22 09:56:27;;;;;;;;;6.67;6.67;;;;;14.18;60.87;102322.97;5009516;28;9401;-67
2022/09/22 10:01:59;;;;;;;;;10.25;9.00;;;;;14.26;59.54;102317.50;5008954;28;9390;-66
2022/09/22 10:04:32;;;;;;;;;7.75;6.00;;;;;14.31;59.18;102310.53;5009231;28;9535;-65
2022/09/22 10:07:45;;;;;;;;;11.50;7.00;;;;;14.38;59.29;102307.94;5010551;28;9528;-66
2022/09/22 10:10:28;;;;;;;;;6.00;5.33;;;;;14.51;58.97;102310.88;5011557;28;9455;-66
2022/09/22 10:13:03;;;;;;;;;11.25;8.00;;;;;14.63;58.85;102302.31;5012439;28;9345;-66
2022/09/22 10:15:35;;;;;;;;;11.33;11.00;;;;;14.68;58.93;102303.41;5011205;28;9385;-66
2022/09/22 10:18:22;;;;;;;;;12.75;12.75;;;;;14.74;58.45;102299.09;5012352;28;9453;-66
2022/09/22 10:21:13;;;;;;;;;13.25;12.00;;;;;14.78;58.04;102301.25;5012331;28;9637;-66
2022/09/22 10:23:41;;;;;;;;;11.25;9.00;;;;;14.83;57.87;102288.00;5010885;28;9495;-66
2022/09/22 10:26:18;;;;;;;;;9.67;9.67;;;;;14.92;57.42;102288.75;5012556;28;9452;-66
2022/09/22 10:29:12;;;;;;;;;10.50;10.50;;;;;14.94;57.44;102294.81;5012427;28;10109;-66
2022/09/22 10:31:40;;;;;;;;;10.33;9.00;;;;;14.99;56.60;102288.81;5012142;28;9459;-66
2022/09/22 10:34:30;;;;;;;;;10.33;10.33;;;;;15.00;56.49;102290.53;5012074;28;10057;-65
2022/09/22 10:36:58;;;;;;;;;6.33;6.33;;;;;15.01;57.02;102286.78;5011747;28;9308;-65
2022/09/22 10:39:47;;;;;;;;;10.00;10.00;;;;;15.03;57.18;102287.44;5011911;28;9354;-66
2022/09/22 10:42:26;;;;;;;;;11.50;11.50;;;;;15.01;56.61;102274.06;5012176;28;9351;-66
2022/09/22 10:44:57;;;;;;;;;17.50;15.50;;;;;15.03;56.66;102280.16;5010929;28;9391;-66
2022/09/22 10:47:50;;;;;;;;;12.50;11.25;;;;;15.14;56.88;102273.38;5015173;28;9533;-66
2022/09/22 10:50:30;;;;;;;;;10.00;10.00;;;;;15.19;56.99;102268.25;5012045;28;9471;-66
2022/09/22 10:53:34;;;;;;;;;9.25;8.00;;;;;15.18;56.78;102257.56;5011774;28;9331;-66
2022/09/22 10:56:11;;;;;;;;;14.00;11.00;;;;;15.16;56.60;102263.19;5011809;28;9541;-66
2022/09/22 10:58:49;;;;;;;;;13.00;12.00;;;;;15.20;57.00;102261.78;5011279;28;9410;-66
2022/09/22 11:01:41;;;;;;;;;7.00;6.33;;;;;15.24;56.56;102256.81;5011729;28;9353;-66
2022/09/22 11:04:34;;;;;;;;;8.33;8.33;;;;;15.31;55.99;102258.59;5011739;28;9260;-65
2022/09/22 11:13:16;;;;;;;;;12.00;12.00;;;;;15.35;55.76;102245.44;5011875;28;9301;-66
2022/09/22 11:16:12;;;;;;;;;8.33;8.00;;;;;15.36;55.23;102252.59;4997917;28;9224;-66
2022/09/22 11:18:44;;;;;;;;;7.33;7.33;;;;;15.42;55.21;102248.25;5010527;28;9347;-66
2022/09/22 11:21:33;;;;;;;;;10.33;10.33;;;;;15.42;55.35;102249.09;5011736;28;9347;-65
2022/09/22 11:24:39;;;;;;;;;9.00;8.00;;;;;15.51;54.49;102249.81;4992180;28;9342;-65
2022/09/22 11:27:21;;;;;;;;;5.00;5.00;;;;;15.55;54.59;102241.06;4996485;28;9435;-66
2022/09/22 11:30:11;;;;;;;;;9.33;7.67;;;;;15.52;54.99;102240.66;5011468;28;9148;-65
2022/09/22 11:33:16;;;;;;;;;8.00;8.00;;;;;15.56;54.96;102240.06;5011286;28;9148;-65
2022/09/22 11:36:01;;;;;;;;;6.00;6.00;;;;;15.65;54.12;102239.97;4997947;28;9170;-66
2022/09/22 11:38:58;;;;;;;;;5.33;5.33;;;;;15.65;54.16;102234.53;5011130;28;9016;-66
2022/09/22 11:41:30;;;;;;;;;5.67;5.67;;;;;15.71;53.80;102229.16;5011181;28;9070;-66
2022/09/22 11:44:19;;;;;;;;;7.67;6.33;;;;;15.75;53.74;102224.19;5009516;28;9799;-65
2022/09/22 11:47:19;;;;;;;;;10.00;10.00;;;;;15.77;52.87;102222.97;5009335;28;8996;-66
2022/09/22 11:49:46;;;;;;;;;10.00;7.00;;;;;15.80;52.74;102210.88;5010942;28;9088;-66
2022/09/22 11:52:43;;;;;;;;;8.00;6.33;;;;;15.88;52.61;102205.31;5011067;28;9067;-66
2022/09/22 11:55:22;;;;;;;;;8.33;7.33;;;;;15.91;52.96;102201.34;5011119;28;9028;-66
2022/09/22 11:57:55;;;;;;;;;6.67;6.33;;;;;15.96;52.62;102193.44;5010394;28;9221;-65
2022/09/22 12:00:22;;;;;;;;;7.33;6.00;;;;;16.05;52.41;102192.28;5011215;28;9191;-66
2022/09/22 12:03:09;;;;;;;;;9.33;7.67;;;;;16.07;51.35;102191.03;5011361;28;9092;-66
2022/09/22 12:05:50;;;;;;;;;3.50;3.50;;;;;16.15;52.50;102192.75;5010693;28;9164;-66